createdAt,value
2017-08-12T00:00:33.717Z,13.23
2017-08-12T00:03:00.727Z,8.40
2017-08-12T00:05:26.895Z,7.10
2017-08-12T00:07:53.925Z,7.50
2017-08-12T00:10:20.861Z,12.60
2017-08-12T00:12:47.555Z,6.82
2017-08-12T00:15:13.745Z,9.27
2017-08-12T00:17:40.695Z,11.35
2017-08-12T00:20:06.903Z,13.07
2017-08-12T00:22:33.927Z,11.05
2017-08-12T00:25:00.993Z,7.12
2017-08-12T00:27:27.201Z,8.23
2017-08-12T00:29:53.323Z,7.40
2017-08-12T00:32:19.611Z,10.88
2017-08-12T00:34:45.872Z,9.87
2017-08-12T00:37:12.271Z,9.40
2017-08-12T00:39:38.798Z,8.35
2017-08-12T00:42:05.125Z,8.88
2017-08-12T00:44:31.383Z,9.88
2017-08-12T00:46:57.824Z,10.25
2017-08-12T00:49:23.912Z,10.13
2017-08-12T00:51:49.967Z,6.93
2017-08-12T00:54:16.065Z,8.60
2017-08-12T00:56:42.480Z,11.80
2017-08-12T00:59:08.538Z,10.93
2017-08-12T01:01:34.718Z,9.38
2017-08-12T01:04:00.762Z,8.88
2017-08-12T01:06:26.813Z,9.48
2017-08-12T01:08:52.897Z,11.00
2017-08-12T01:11:19.198Z,14.10
2017-08-12T01:13:45.246Z,9.07
2017-08-12T01:16:11.345Z,9.95
2017-08-12T01:18:37.409Z,15.15
2017-08-12T01:21:03.459Z,12.23
2017-08-12T01:23:29.615Z,13.77
2017-08-12T01:25:55.663Z,11.37
2017-08-12T01:28:21.685Z,11.65
2017-08-12T01:30:47.851Z,10.43
2017-08-12T01:33:13.929Z,8.27
2017-08-12T01:35:39.974Z,10.40
2017-08-12T01:38:06.499Z,9.93
2017-08-12T01:40:32.588Z,8.60
2017-08-12T01:42:58.629Z,10.40
2017-08-12T01:45:24.696Z,9.07
2017-08-12T01:47:50.758Z,7.35
2017-08-12T01:50:16.806Z,12.95
2017-08-12T01:52:42.852Z,10.00
2017-08-12T01:55:09.308Z,9.68
2017-08-12T01:57:36.100Z,8.70
2017-08-12T02:00:02.161Z,10.40
2017-08-12T02:02:28.216Z,8.60
2017-08-12T02:04:54.258Z,8.03
2017-08-12T02:07:20.339Z,7.00
2017-08-12T02:09:47.131Z,8.18
2017-08-12T02:12:13.162Z,9.50
2017-08-12T02:14:39.266Z,8.98
2017-08-12T02:17:05.324Z,6.90
2017-08-12T02:19:31.358Z,8.02
2017-08-12T02:21:57.394Z,8.55
2017-08-12T02:24:24.176Z,12.90
2017-08-12T02:26:50.349Z,10.73
2017-08-12T02:29:17.126Z,6.45
2017-08-12T02:31:43.179Z,7.65
2017-08-12T02:34:09.256Z,13.70
2017-08-12T02:36:35.592Z,9.55
2017-08-12T02:39:01.679Z,12.10
2017-08-12T02:41:28.515Z,12.82
2017-08-12T02:43:54.550Z,12.53
2017-08-12T02:46:21.347Z,9.02
2017-08-12T02:48:47.409Z,13.65
2017-08-12T02:51:14.207Z,14.52
2017-08-12T02:53:40.241Z,13.90
2017-08-12T02:56:06.668Z,16.20
2017-08-12T02:58:32.714Z,13.38
2017-08-12T03:00:58.754Z,18.33
2017-08-12T03:03:25.595Z,14.25
2017-08-12T03:05:52.447Z,12.15
2017-08-12T03:08:18.515Z,18.42
2017-08-12T03:10:44.584Z,16.48
2017-08-12T03:13:10.687Z,15.88
2017-08-12T03:15:37.463Z,11.20
2017-08-12T03:18:03.549Z,11.68
2017-08-12T03:20:30.335Z,22.05
2017-08-12T03:22:56.370Z,17.33
2017-08-12T03:25:22.456Z,17.50
2017-08-12T03:27:48.520Z,17.80
2017-08-12T03:30:14.614Z,18.92
2017-08-12T03:32:40.684Z,22.13
2017-08-12T03:35:06.770Z,20.15
2017-08-12T03:37:32.843Z,17.75
2017-08-12T03:39:58.902Z,16.87
2017-08-12T03:42:24.977Z,20.58
2017-08-12T03:44:51.048Z,12.27
2017-08-12T03:47:17.074Z,16.92
2017-08-12T03:49:43.106Z,19.97
2017-08-12T03:52:09.225Z,14.05
2017-08-12T03:54:35.277Z,14.43
2017-08-12T03:57:01.308Z,20.37
2017-08-12T03:59:27.468Z,16.00
2017-08-12T04:01:53.494Z,18.80
2017-08-12T04:04:19.555Z,17.80
2017-08-12T04:06:45.635Z,13.75
2017-08-12T04:09:11.685Z,18.97
2017-08-12T04:11:37.741Z,21.95
2017-08-12T04:14:03.840Z,14.93
2017-08-12T04:16:29.878Z,16.25
2017-08-12T04:18:55.959Z,15.00
2017-08-12T04:21:22.055Z,16.40
2017-08-12T04:23:48.863Z,18.37
2017-08-12T04:26:14.933Z,15.87
2017-08-12T04:28:41.012Z,20.10
2017-08-12T04:31:07.056Z,16.37
2017-08-12T04:33:34.079Z,16.73
2017-08-12T04:36:00.134Z,18.58
2017-08-12T04:38:26.971Z,20.17
2017-08-12T04:40:53.780Z,20.52
2017-08-12T04:43:19.846Z,16.70
2017-08-12T04:45:45.905Z,20.42
2017-08-12T04:48:12.037Z,18.40
2017-08-12T04:50:38.144Z,17.02
2017-08-12T04:53:04.189Z,16.80
2017-08-12T04:55:30.240Z,21.00
2017-08-12T04:57:57.241Z,21.60
2017-08-12T05:00:23.309Z,19.10
2017-08-12T05:02:50.137Z,19.73
2017-08-12T05:05:16.310Z,20.10
2017-08-12T05:07:42.415Z,22.05
2017-08-12T05:10:08.468Z,18.20
2017-08-12T05:12:34.528Z,18.85
2017-08-12T05:15:00.594Z,19.77
2017-08-12T05:17:26.608Z,21.67
2017-08-12T05:19:52.951Z,18.70
2017-08-12T05:22:19.016Z,21.67
2017-08-12T05:24:45.067Z,19.05
2017-08-12T05:27:11.202Z,17.42
2017-08-12T05:29:37.270Z,19.67
2017-08-12T05:32:03.325Z,23.50
2017-08-12T05:34:30.157Z,21.93
2017-08-12T05:36:56.407Z,21.37
2017-08-12T05:39:22.449Z,20.27
2017-08-12T05:41:48.778Z,16.92
2017-08-12T05:44:14.834Z,20.80
2017-08-12T05:46:40.892Z,22.45
2017-08-12T05:49:07.803Z,20.55
2017-08-12T05:51:33.897Z,19.80
2017-08-12T05:53:59.941Z,20.55
2017-08-12T05:56:26.238Z,20.55
2017-08-12T05:58:52.282Z,21.58
2017-08-12T06:01:18.356Z,19.52
2017-08-12T06:03:45.355Z,18.52
2017-08-12T06:06:11.387Z,17.95
2017-08-12T06:08:37.439Z,19.05
2017-08-12T06:11:04.359Z,21.40
2017-08-12T06:13:30.424Z,20.62
2017-08-12T06:15:56.703Z,21.83
2017-08-12T06:18:22.871Z,22.45
2017-08-12T06:20:48.930Z,23.30
2017-08-12T06:23:15.037Z,19.00
2017-08-12T06:25:41.109Z,20.48
2017-08-12T06:28:07.171Z,22.90
2017-08-12T06:30:40.174Z,19.83
2017-08-12T06:33:06.600Z,21.75
2017-08-12T06:35:32.639Z,20.15
2017-08-12T06:37:58.688Z,23.08
2017-08-12T06:40:25.176Z,24.55
2017-08-12T06:42:51.209Z,25.42
2017-08-12T06:45:17.400Z,22.83
2017-08-12T06:47:43.558Z,18.70
2017-08-12T06:50:09.577Z,22.33
2017-08-12T06:52:35.819Z,20.33
2017-08-12T06:55:02.023Z,18.80
2017-08-12T06:57:28.057Z,25.80
2017-08-12T06:59:54.121Z,16.10
2017-08-12T07:02:20.907Z,25.23
2017-08-12T07:04:46.954Z,21.05
2017-08-12T07:07:13.023Z,20.30
2017-08-12T07:09:39.118Z,20.90
2017-08-12T07:12:05.154Z,19.62
2017-08-12T07:14:31.961Z,19.60
2017-08-12T07:16:58.278Z,21.00
2017-08-12T07:19:31.502Z,22.27
2017-08-12T07:21:58.282Z,18.33
2017-08-12T07:24:24.347Z,18.58
2017-08-12T07:26:50.432Z,18.10
2017-08-12T07:29:16.511Z,19.35
2017-08-12T07:31:42.534Z,17.30
2017-08-12T07:34:09.298Z,18.58
2017-08-12T07:36:35.845Z,18.02
2017-08-12T07:39:01.919Z,17.33
2017-08-12T07:41:27.995Z,17.60
2017-08-12T07:43:54.042Z,18.77
2017-08-12T07:46:20.066Z,21.60
2017-08-12T07:48:46.126Z,20.23
2017-08-12T07:51:13.217Z,23.00
2017-08-12T07:53:39.262Z,21.23
2017-08-12T07:56:05.299Z,18.67
2017-08-12T07:58:31.358Z,20.25
2017-08-12T08:00:57.421Z,24.20
2017-08-12T08:03:23.456Z,17.83
2017-08-12T08:05:49.948Z,24.55
2017-08-12T08:08:15.978Z,24.60
2017-08-12T08:10:42.015Z,25.35
2017-08-12T08:13:08.124Z,25.02
2017-08-12T08:15:34.155Z,26.27
2017-08-12T08:18:07.059Z,24.30
2017-08-12T08:20:33.150Z,24.12
2017-08-12T08:22:59.169Z,67.95
2017-08-12T08:25:25.250Z,89.18
2017-08-12T08:27:52.335Z,27.90
2017-08-12T08:30:18.423Z,24.23
2017-08-12T08:32:44.483Z,22.10
2017-08-12T08:35:10.739Z,20.55
2017-08-12T08:37:36.805Z,22.45
2017-08-12T08:40:02.856Z,18.50
2017-08-12T08:42:29.027Z,20.47
2017-08-12T08:44:55.855Z,17.70
2017-08-12T08:47:22.024Z,19.23
2017-08-12T08:49:48.077Z,16.40
2017-08-12T08:52:14.212Z,15.93
2017-08-12T08:54:40.631Z,14.83
2017-08-12T08:57:06.795Z,14.90
2017-08-12T08:59:32.955Z,15.73
2017-08-12T09:01:59.049Z,15.27
2017-08-12T09:04:25.923Z,14.02
2017-08-12T09:06:52.011Z,15.27
2017-08-12T09:09:18.802Z,13.27
2017-08-12T09:11:44.901Z,15.20
2017-08-12T09:14:11.069Z,12.70
2017-08-12T09:16:37.333Z,13.60
2017-08-12T09:19:04.142Z,12.30
2017-08-12T09:21:30.174Z,14.20
2017-08-12T09:23:56.250Z,14.13
2017-08-12T09:26:22.370Z,14.55
2017-08-12T09:28:48.404Z,16.92
2017-08-12T09:31:14.464Z,13.83
2017-08-12T09:33:40.569Z,17.83
2017-08-12T09:36:06.621Z,18.73
2017-08-12T09:38:33.422Z,27.60
2017-08-12T09:41:00.270Z,32.53
2017-08-12T09:43:26.379Z,30.50
2017-08-12T09:45:52.426Z,41.42
2017-08-12T09:48:18.493Z,44.13
2017-08-12T09:50:44.540Z,46.10
2017-08-12T09:53:10.782Z,36.85
2017-08-12T09:55:36.896Z,45.78
2017-08-12T09:58:02.966Z,50.72
2017-08-12T10:00:29.755Z,53.58
2017-08-12T10:02:56.126Z,52.20
2017-08-12T10:05:22.170Z,50.28
2017-08-12T10:07:48.983Z,61.05
2017-08-12T10:10:15.069Z,59.70
2017-08-12T10:12:41.128Z,54.83
2017-08-12T10:15:07.167Z,54.67
2017-08-12T10:17:33.962Z,53.55
2017-08-12T10:20:00.008Z,48.28
2017-08-12T10:22:26.059Z,50.30
2017-08-12T10:24:52.838Z,51.50
2017-08-12T10:27:18.871Z,45.92
2017-08-12T10:29:44.945Z,44.22
2017-08-12T10:32:11.751Z,47.20
2017-08-12T10:34:37.790Z,41.90
2017-08-12T10:37:04.078Z,41.00
2017-08-12T10:39:30.187Z,41.60
2017-08-12T10:41:56.247Z,38.33
2017-08-12T10:44:22.343Z,43.80
2017-08-12T10:46:48.391Z,37.10
2017-08-12T10:49:14.488Z,40.45
2017-08-12T10:51:40.846Z,39.08
2017-08-12T10:54:06.894Z,37.72
2017-08-12T10:56:33.743Z,41.40
2017-08-12T10:59:00.103Z,36.03
2017-08-12T11:01:26.137Z,34.05
2017-08-12T11:03:52.198Z,35.78
2017-08-12T11:06:18.268Z,36.50
2017-08-12T11:08:44.323Z,33.65
2017-08-12T11:11:10.424Z,32.87
2017-08-12T11:13:36.491Z,31.50
2017-08-12T11:16:03.312Z,32.28
2017-08-12T11:18:29.496Z,33.03
2017-08-12T11:20:55.566Z,29.65
2017-08-12T11:23:22.362Z,30.95
2017-08-12T11:25:48.911Z,27.73
2017-08-12T11:28:15.024Z,29.15
2017-08-12T11:30:41.074Z,26.60
2017-08-12T11:33:07.972Z,30.20
2017-08-12T11:35:33.993Z,26.83
2017-08-12T11:38:00.062Z,25.50
2017-08-12T11:40:26.372Z,25.87
2017-08-12T11:42:52.405Z,25.33
2017-08-12T11:45:18.460Z,26.87
2017-08-12T11:47:45.271Z,24.40
2017-08-12T11:50:11.354Z,20.00
2017-08-12T11:52:37.443Z,19.08
2017-08-12T11:55:04.540Z,20.15
2017-08-12T11:57:30.577Z,17.77
2017-08-12T11:59:56.645Z,14.98
2017-08-12T12:02:23.792Z,16.27
2017-08-12T12:04:50.421Z,17.20
2017-08-12T12:07:17.206Z,15.20
2017-08-12T12:09:43.283Z,14.52
2017-08-12T12:12:09.332Z,15.10
2017-08-12T12:14:35.656Z,13.45
2017-08-12T12:17:01.758Z,41.17
2017-08-12T12:19:27.976Z,21.30
2017-08-12T12:21:54.025Z,59.65
2017-08-12T12:24:20.853Z,23.52
2017-08-12T12:26:47.812Z,19.25
2017-08-12T12:29:14.583Z,15.00
2017-08-12T12:31:40.904Z,14.27
2017-08-12T12:34:06.946Z,10.80
2017-08-12T12:36:32.974Z,9.73
2017-08-12T12:38:59.283Z,10.07
2017-08-12T12:41:25.324Z,8.90
2017-08-12T12:43:51.384Z,9.57
2017-08-12T12:46:17.444Z,9.77
2017-08-12T12:48:43.489Z,9.02
2017-08-12T12:51:09.790Z,7.00
2017-08-12T12:53:35.850Z,7.65
2017-08-12T12:56:01.921Z,6.60
2017-08-12T12:58:28.170Z,6.85
2017-08-12T13:00:54.220Z,6.93
2017-08-12T13:03:20.251Z,7.93
2017-08-12T13:05:46.746Z,7.20
2017-08-12T13:08:12.961Z,7.10
2017-08-12T13:10:38.996Z,5.80
2017-08-12T13:13:05.428Z,7.68
2017-08-12T13:15:31.507Z,7.22
2017-08-12T13:17:57.583Z,5.50
2017-08-12T13:20:24.031Z,8.15
2017-08-12T13:22:50.075Z,6.55
2017-08-12T13:25:16.151Z,5.80
2017-08-12T13:27:42.241Z,5.87
2017-08-12T13:30:09.038Z,6.40
2017-08-12T13:32:35.083Z,5.12
2017-08-12T13:35:01.195Z,4.80
2017-08-12T13:37:27.222Z,4.33
2017-08-12T13:39:53.256Z,3.70
2017-08-12T13:42:19.303Z,3.30
2017-08-12T13:44:46.109Z,3.37
2017-08-12T13:47:12.610Z,4.57
2017-08-12T13:49:38.646Z,6.30
2017-08-12T13:52:04.895Z,2.90
2017-08-12T13:54:30.987Z,3.70
2017-08-12T13:56:57.058Z,59.53
2017-08-12T13:59:23.120Z,64.55
2017-08-12T14:01:49.195Z,6.60
2017-08-12T14:04:15.235Z,4.50
2017-08-12T14:06:42.042Z,3.97
2017-08-12T14:09:08.114Z,3.50
2017-08-12T14:11:34.171Z,3.15
2017-08-12T14:14:00.196Z,3.22
2017-08-12T14:16:26.504Z,2.65
2017-08-12T14:18:52.615Z,3.00
2017-08-12T14:21:18.828Z,3.03
2017-08-12T14:23:44.940Z,2.80
2017-08-12T14:26:11.720Z,2.92
2017-08-12T14:28:37.747Z,2.80
2017-08-12T14:31:03.843Z,4.35
2017-08-12T14:33:29.902Z,3.03
2017-08-12T14:35:56.350Z,4.10
2017-08-12T14:38:22.504Z,3.08
2017-08-12T14:40:49.286Z,3.60
2017-08-12T14:43:15.385Z,3.33
2017-08-12T14:45:41.460Z,3.20
2017-08-12T14:48:07.533Z,3.55
2017-08-12T14:50:33.788Z,3.50
2017-08-12T14:52:59.891Z,3.20
2017-08-12T14:55:25.934Z,4.15
2017-08-12T14:57:51.994Z,3.92
2017-08-12T15:00:18.046Z,3.20
2017-08-12T15:02:44.090Z,4.05
2017-08-12T15:05:10.136Z,3.43
2017-08-12T15:07:36.187Z,3.12
2017-08-12T15:10:02.985Z,2.90
2017-08-12T15:12:29.718Z,2.90
2017-08-12T15:14:55.750Z,3.20
2017-08-12T15:17:21.835Z,5.35
2017-08-12T15:19:48.401Z,2.97
2017-08-12T15:22:14.440Z,3.63
2017-08-12T15:24:40.486Z,3.78
2017-08-12T15:27:07.449Z,3.25
2017-08-12T15:32:00.359Z,3.50
2017-08-12T15:34:26.539Z,3.70
2017-08-12T15:36:52.594Z,3.40
2017-08-12T15:39:18.631Z,3.30
2017-08-12T15:41:44.763Z,3.58
2017-08-12T15:44:10.818Z,4.07
2017-08-12T15:46:38.116Z,3.75
2017-08-12T15:49:04.458Z,4.62
2017-08-12T15:51:30.761Z,3.97
2017-08-12T15:53:56.799Z,4.53
2017-08-12T15:56:22.880Z,5.97
2017-08-12T15:58:48.924Z,5.50
2017-08-12T16:01:14.963Z,5.37
2017-08-12T16:03:41.393Z,5.90
2017-08-12T16:06:07.455Z,6.30
2017-08-12T16:08:34.187Z,5.90
2017-08-12T16:11:00.484Z,7.53
2017-08-12T16:13:26.561Z,6.30
2017-08-12T16:15:53.368Z,7.82
2017-08-12T16:18:19.422Z,7.10
2017-08-12T16:20:46.196Z,7.68
2017-08-12T16:23:12.287Z,6.75
2017-08-12T16:25:39.125Z,8.40
2017-08-12T16:28:05.184Z,7.93
2017-08-12T16:30:31.226Z,8.90
2017-08-12T16:32:57.502Z,10.32
2017-08-12T16:35:23.544Z,8.20
2017-08-12T16:37:49.606Z,9.60
2017-08-12T16:40:15.678Z,6.00
2017-08-12T16:42:41.711Z,5.72
2017-08-12T16:45:07.860Z,4.10
2017-08-12T16:47:34.151Z,4.35
2017-08-12T16:50:00.215Z,3.30
2017-08-12T16:52:26.277Z,10.05
2017-08-12T16:54:52.378Z,37.15
2017-08-12T16:57:18.442Z,31.92
2017-08-12T16:59:44.507Z,8.52
2017-08-12T17:02:10.921Z,3.55
2017-08-12T17:04:36.967Z,3.65
2017-08-12T17:07:03.015Z,3.83
2017-08-12T17:09:29.815Z,4.57
2017-08-12T17:11:55.851Z,4.28
2017-08-12T17:14:21.885Z,4.80
2017-08-12T17:16:47.971Z,4.47
2017-08-12T17:19:14.741Z,6.45
2017-08-12T17:21:40.788Z,4.47
2017-08-12T17:24:07.240Z,7.50
2017-08-12T17:26:33.322Z,4.30
2017-08-12T17:28:59.363Z,6.68
2017-08-12T17:31:26.494Z,5.20
2017-08-12T17:33:53.346Z,7.10
2017-08-12T17:36:20.274Z,6.82
2017-08-12T17:38:46.364Z,10.20
2017-08-12T17:41:12.440Z,7.18
2017-08-12T17:43:39.223Z,7.37
2017-08-12T17:46:05.540Z,8.63
2017-08-12T17:48:31.598Z,7.65
2017-08-12T17:50:57.694Z,9.93
2017-08-12T17:53:23.776Z,8.60
2017-08-12T17:55:49.820Z,8.00
2017-08-12T17:58:15.901Z,8.02
2017-08-12T18:00:41.994Z,12.70
2017-08-12T18:03:08.081Z,13.38
2017-08-12T18:05:34.159Z,8.13
2017-08-12T18:08:00.248Z,13.27
2017-08-12T18:10:26.367Z,9.50
2017-08-12T18:12:52.420Z,11.57
2017-08-12T18:15:18.828Z,11.73
2017-08-12T18:17:44.855Z,8.68
2017-08-12T18:20:10.907Z,8.25
2017-08-12T18:22:37.721Z,6.68
2017-08-12T18:25:03.764Z,9.50
2017-08-12T18:27:30.582Z,6.85
2017-08-12T18:29:56.874Z,9.70
2017-08-12T18:32:22.935Z,6.63
2017-08-12T18:34:48.987Z,7.00
2017-08-12T18:37:15.899Z,6.10
2017-08-12T18:39:42.019Z,6.53
2017-08-12T18:42:08.081Z,7.15
2017-08-12T18:44:35.032Z,6.95
2017-08-12T18:47:01.875Z,6.07
2017-08-12T18:49:28.674Z,7.12
2017-08-12T18:51:54.846Z,10.97
2017-08-12T18:54:20.952Z,6.57
2017-08-12T18:56:47.765Z,6.35
2017-08-12T18:59:13.954Z,14.15
2017-08-12T19:01:40.024Z,8.25
2017-08-12T19:04:06.064Z,9.33
2017-08-12T19:06:32.333Z,11.30
2017-08-12T19:08:58.393Z,7.85
2017-08-12T19:11:24.464Z,7.05
2017-08-12T19:13:50.541Z,9.57
2017-08-12T19:16:16.599Z,8.25
2017-08-12T19:18:42.638Z,11.40
2017-08-12T19:21:08.721Z,8.18
2017-08-12T19:23:35.491Z,10.73
2017-08-12T19:26:01.640Z,12.65
2017-08-12T19:28:27.725Z,8.43
2017-08-12T19:30:53.792Z,11.70
2017-08-12T19:33:19.962Z,7.00
2017-08-12T19:35:46.771Z,9.50
2017-08-12T19:38:12.816Z,7.10
2017-08-12T19:40:39.822Z,9.38
2017-08-12T19:43:05.872Z,10.75
2017-08-12T19:45:31.930Z,11.50
2017-08-12T19:47:58.284Z,12.45
2017-08-12T19:50:24.361Z,9.35
2017-08-12T19:52:51.182Z,11.57
2017-08-12T19:55:17.281Z,8.50
2017-08-12T19:57:43.387Z,12.55
2017-08-12T20:00:09.444Z,11.15
2017-08-12T20:02:35.501Z,9.93
2017-08-12T20:05:01.624Z,12.95
2017-08-12T20:07:28.421Z,12.25
2017-08-12T20:09:54.475Z,19.02
2017-08-12T20:12:20.836Z,18.48
2017-08-12T20:14:46.900Z,58.30
2017-08-12T20:17:12.973Z,32.78
2017-08-12T20:19:39.035Z,36.45
2017-08-12T20:22:05.110Z,69.23
2017-08-12T20:24:31.460Z,49.00
2017-08-12T20:26:57.517Z,39.92
2017-08-12T20:29:23.586Z,33.37
2017-08-12T20:31:49.675Z,57.60
2017-08-12T20:34:15.734Z,40.00
2017-08-12T20:36:41.794Z,114.62
2017-08-12T20:39:07.884Z,74.70
2017-08-12T20:41:33.972Z,127.67
2017-08-12T20:44:00.757Z,57.40
2017-08-12T20:46:26.814Z,237.73
2017-08-12T20:48:52.882Z,55.65
2017-08-12T20:51:18.939Z,37.70
2017-08-12T20:53:45.072Z,177.40
2017-08-12T20:56:11.108Z,103.78
2017-08-12T20:58:37.335Z,73.32
2017-08-12T21:01:03.418Z,55.65
2017-08-12T21:03:29.507Z,27.75
2017-08-12T21:05:56.300Z,23.58
2017-08-12T21:08:22.626Z,12.40
2017-08-12T21:10:48.663Z,9.38
2017-08-12T21:13:14.725Z,10.05
2017-08-12T21:15:40.932Z,11.30
2017-08-12T21:18:07.715Z,8.95
2017-08-12T21:20:33.738Z,11.90
2017-08-12T21:22:59.821Z,7.15
2017-08-12T21:25:26.617Z,11.35
2017-08-12T21:30:26.255Z,10.85
2017-08-12T21:32:52.312Z,7.05
2017-08-12T21:35:19.132Z,6.43
2017-08-12T21:37:45.413Z,7.73
2017-08-12T21:42:23.143Z,7.70
2017-08-12T21:44:49.256Z,11.45
2017-08-12T21:47:15.295Z,7.35
2017-08-12T21:49:41.324Z,7.75
2017-08-12T21:52:07.712Z,8.35
2017-08-12T21:54:33.775Z,8.57
2017-08-12T21:56:59.844Z,7.00
2017-08-12T21:59:26.290Z,7.78
2017-08-12T22:01:52.605Z,9.00
2017-08-12T22:04:18.657Z,9.55
2017-08-12T22:06:44.830Z,6.12
2017-08-12T22:09:11.611Z,8.02
2017-08-12T22:11:37.850Z,7.00
2017-08-12T22:14:04.048Z,6.95
2017-08-12T22:16:30.100Z,9.65
2017-08-12T22:18:56.424Z,13.05
2017-08-12T22:21:22.465Z,23.40
2017-08-12T22:23:48.521Z,60.08
2017-08-12T22:26:14.876Z,53.67
2017-08-12T22:28:41.066Z,50.85
2017-08-12T22:31:07.863Z,48.97
2017-08-12T22:33:33.950Z,96.25
2017-08-12T22:36:00.000Z,47.65
2017-08-12T22:38:26.033Z,42.57
2017-08-12T22:40:52.518Z,141.30
2017-08-12T22:43:18.600Z,72.07
2017-08-12T22:45:44.688Z,54.15
2017-08-12T22:48:10.774Z,48.08
2017-08-12T22:50:36.846Z,42.08
2017-08-12T22:53:02.888Z,21.87
2017-08-12T22:55:29.160Z,51.60
2017-08-12T22:57:55.406Z,24.40
2017-08-12T23:00:21.544Z,22.10
2017-08-12T23:02:47.616Z,19.05
2017-08-12T23:05:21.363Z,15.82
2017-08-12T23:07:47.539Z,20.73
2017-08-12T23:10:14.320Z,14.98
2017-08-12T23:12:40.353Z,18.30
2017-08-12T23:15:06.463Z,15.98
2017-08-12T23:17:32.524Z,18.53
2017-08-12T23:19:58.589Z,17.77
2017-08-12T23:22:24.844Z,12.77
2017-08-12T23:24:50.915Z,11.93
2017-08-12T23:27:17.788Z,12.90
2017-08-12T23:29:45.268Z,12.67
2017-08-12T23:32:11.343Z,16.77
2017-08-12T23:34:38.133Z,13.27
2017-08-12T23:37:04.303Z,12.00
2017-08-12T23:39:31.098Z,13.82
2017-08-12T23:41:57.131Z,14.40
2017-08-12T23:44:23.444Z,76.60
2017-08-12T23:46:49.529Z,23.45
2017-08-12T23:49:15.559Z,12.57
2017-08-12T23:51:41.731Z,11.82
2017-08-12T23:54:07.810Z,12.50
2017-08-12T23:56:33.840Z,11.93
2017-08-12T23:58:59.917Z,14.02
